createdAt,value
2018-05-11T00:00:10.077Z,98234.91
2018-05-11T00:01:14.841Z,98226.59
2018-05-11T00:02:19.653Z,98228.16
2018-05-11T00:03:25.063Z,98237.99
2018-05-11T00:04:29.681Z,98231.73
2018-05-11T00:05:36.192Z,98235.97
2018-05-11T00:06:41.180Z,98229.77
2018-05-11T00:07:45.879Z,98233.63
2018-05-11T00:08:51.820Z,98227.45
2018-05-11T00:09:56.471Z,98233.13
2018-05-11T00:11:02.011Z,98228.98
2018-05-11T00:12:07.049Z,98232.54
2018-05-11T00:13:11.626Z,98227.36
2018-05-11T00:14:16.190Z,98227.40
2018-05-11T00:15:20.739Z,98227.38
2018-05-11T00:16:25.788Z,98230.21
2018-05-11T00:17:30.706Z,98226.63
2018-05-11T00:18:35.717Z,98229.41
2018-05-11T00:19:41.361Z,98225.27
2018-05-11T00:20:46.882Z,98230.66
2018-05-11T00:21:51.454Z,98224.16
2018-05-11T00:22:56.018Z,98227.27
2018-05-11T00:24:00.606Z,98226.69
2018-05-11T00:25:05.658Z,98225.10
2018-05-11T00:26:10.234Z,98229.61
2018-05-11T00:27:14.807Z,98227.95
2018-05-11T00:28:21.475Z,98229.73
2018-05-11T00:29:27.185Z,98226.52
2018-05-11T00:30:32.669Z,98217.30
2018-05-11T00:31:37.780Z,98222.11
2018-05-11T00:32:43.184Z,98219.05
2018-05-11T00:33:48.477Z,98222.25
2018-05-11T00:34:53.485Z,98219.14
2018-05-11T00:35:59.053Z,98223.14
2018-05-11T00:37:03.760Z,98226.93
2018-05-11T00:38:09.013Z,98225.34
2018-05-11T00:39:14.528Z,98226.08
2018-05-11T00:40:19.214Z,98227.03
2018-05-11T00:41:24.393Z,98230.33
2018-05-11T00:42:29.259Z,98231.80
2018-05-11T00:43:33.913Z,98231.05
2018-05-11T00:44:40.326Z,98229.86
2018-05-11T00:45:44.917Z,98235.95
2018-05-11T00:46:49.542Z,98237.52
2018-05-11T00:47:55.216Z,98233.00
2018-05-11T00:48:59.926Z,98237.97
2018-05-11T00:50:04.555Z,98237.83
2018-05-11T00:51:09.831Z,98242.05
2018-05-11T00:52:15.726Z,98234.77
2018-05-11T00:53:20.419Z,98239.06
2018-05-11T00:54:25.007Z,98239.38
2018-05-11T00:55:59.835Z,98244.12
2018-05-11T00:57:05.828Z,98247.25
2018-05-11T00:58:11.464Z,98244.63
2018-05-11T00:59:16.115Z,98242.60
2018-05-11T01:00:20.755Z,98240.36
2018-05-11T01:01:25.364Z,98236.50
2018-05-11T01:02:29.954Z,98240.47
2018-05-11T01:03:34.546Z,98242.23
2018-05-11T01:04:39.572Z,98245.68
2018-05-11T01:05:44.375Z,98235.41
2018-05-11T01:06:48.980Z,98239.45
2018-05-11T01:07:53.550Z,98237.27
2018-05-11T01:08:58.334Z,98238.89
2018-05-11T01:10:02.900Z,98235.45
2018-05-11T01:11:07.853Z,98242.83
2018-05-11T01:12:12.458Z,98242.89
2018-05-11T01:13:17.040Z,98240.83
2018-05-11T01:14:21.640Z,98237.73
2018-05-11T01:15:27.141Z,98238.50
2018-05-11T01:16:31.698Z,98238.95
2018-05-11T01:17:36.586Z,98238.50
2018-05-11T01:18:41.185Z,98237.77
2018-05-11T01:19:45.745Z,98238.20
2018-05-11T01:20:50.312Z,98232.78
2018-05-11T01:21:54.869Z,98234.34
2018-05-11T01:22:59.473Z,98239.49
2018-05-11T01:24:05.266Z,98235.80
2018-05-11T01:25:09.866Z,98238.19
2018-05-11T01:26:15.260Z,98237.38
2018-05-11T01:27:20.084Z,98232.84
2018-05-11T01:28:24.702Z,98237.17
2018-05-11T01:29:30.315Z,98240.83
2018-05-11T01:30:35.203Z,98238.47
2018-05-11T01:31:39.832Z,98239.42
2018-05-11T01:32:45.148Z,98234.84
2018-05-11T01:33:51.494Z,98241.89
2018-05-11T01:34:56.805Z,98239.83
2018-05-11T01:36:01.452Z,98238.52
2018-05-11T01:37:06.382Z,98236.41
2018-05-11T01:38:11.929Z,98242.06
2018-05-11T01:39:17.086Z,98237.12
2018-05-11T01:40:21.657Z,98240.02
2018-05-11T01:41:26.202Z,98239.67
2018-05-11T01:42:30.835Z,98233.25
2018-05-11T01:43:35.907Z,98238.68
2018-05-11T01:44:41.901Z,98239.38
2018-05-11T01:45:46.483Z,98241.15
2018-05-11T01:46:51.353Z,98242.41
2018-05-11T01:47:55.947Z,98242.51
2018-05-11T01:49:00.392Z,98242.98
2018-05-11T01:50:05.318Z,98240.27
2018-05-11T01:51:10.585Z,98244.73
2018-05-11T01:52:16.070Z,98242.63
2018-05-11T01:53:20.545Z,98242.89
2018-05-11T01:54:25.012Z,98234.84
2018-05-11T01:55:29.516Z,98241.17
2018-05-11T01:56:34.448Z,98230.27
2018-05-11T01:57:39.489Z,98239.28
2018-05-11T01:58:43.986Z,98237.11
2018-05-11T01:59:48.510Z,98236.70
2018-05-11T02:00:52.976Z,98234.45
2018-05-11T02:01:57.877Z,98233.94
2018-05-11T02:03:04.642Z,98240.13
2018-05-11T02:04:09.232Z,98238.36
2018-05-11T02:05:14.570Z,98233.05
2018-05-11T02:06:19.154Z,98235.42
2018-05-11T02:07:23.955Z,98235.11
2018-05-11T02:08:28.542Z,98239.05
2018-05-11T02:09:33.675Z,98236.23
2018-05-11T02:10:38.328Z,98239.66
2018-05-11T02:11:46.090Z,98246.81
2018-05-11T02:12:51.282Z,98239.09
2018-05-11T02:13:55.857Z,98245.28
2018-05-11T02:15:00.581Z,98241.16
2018-05-11T02:16:05.844Z,98245.19
2018-05-11T02:17:11.042Z,98243.59
2018-05-11T02:18:15.582Z,98237.08
2018-05-11T02:19:20.138Z,98242.65
2018-05-11T02:20:24.677Z,98238.30
2018-05-11T02:21:29.189Z,98242.30
2018-05-11T02:22:35.208Z,98235.48
2018-05-11T02:23:40.644Z,98240.64
2018-05-11T02:24:45.506Z,98240.51
2018-05-11T02:25:50.070Z,98241.14
2018-05-11T02:26:54.614Z,98242.68
2018-05-11T02:27:59.332Z,98243.43
2018-05-11T02:29:04.250Z,98241.79
2018-05-11T02:30:09.895Z,98241.88
2018-05-11T02:31:14.584Z,98241.25
2018-05-11T02:32:19.201Z,98246.88
2018-05-11T02:33:24.573Z,98242.83
2018-05-11T02:34:34.462Z,98245.77
2018-05-11T02:35:39.319Z,98248.98
2018-05-11T02:36:43.804Z,98252.61
2018-05-11T02:37:50.093Z,98250.28
2018-05-11T02:38:55.700Z,98247.03
2018-05-11T02:40:01.130Z,98244.27
2018-05-11T02:41:05.714Z,98245.81
2018-05-11T02:42:13.190Z,98248.58
2018-05-11T02:43:18.532Z,98243.13
2018-05-11T02:44:23.846Z,98247.38
2018-05-11T02:45:29.961Z,98250.92
2018-05-11T02:46:35.266Z,98250.70
2018-05-11T02:47:40.625Z,98250.97
2018-05-11T02:48:49.621Z,98247.62
2018-05-11T02:49:56.659Z,98250.14
2018-05-11T02:51:01.975Z,98254.48
2018-05-11T02:52:07.575Z,98254.38
2018-05-11T02:53:13.438Z,98251.39
2018-05-11T02:54:20.263Z,98254.04
2018-05-11T02:55:26.603Z,98252.46
2018-05-11T02:56:31.932Z,98253.08
2018-05-11T02:57:38.595Z,98248.63
2018-05-11T02:58:45.843Z,98246.83
2018-05-11T02:59:52.655Z,98248.02
2018-05-11T03:00:58.997Z,98251.06
2018-05-11T03:02:04.212Z,98254.28
2018-05-11T03:03:09.525Z,98247.22
2018-05-11T03:04:14.925Z,98245.28
2018-05-11T03:05:20.611Z,98249.55
2018-05-11T03:06:27.838Z,98250.70
2018-05-11T03:07:33.559Z,98246.20
2018-05-11T03:08:39.095Z,98247.70
2018-05-11T03:09:44.892Z,98250.36
2018-05-11T03:10:50.128Z,98248.26
2018-05-11T03:11:55.481Z,98248.00
2018-05-11T03:13:02.311Z,98249.88
2018-05-11T03:14:07.876Z,98250.53
2018-05-11T03:15:12.367Z,98247.14
2018-05-11T03:16:16.873Z,98249.88
2018-05-11T03:17:22.012Z,98250.66
2018-05-11T03:18:27.843Z,98248.49
2018-05-11T03:19:33.292Z,98252.25
2018-05-11T03:20:39.474Z,98253.73
2018-05-11T03:21:44.330Z,98256.72
2018-05-11T03:22:48.788Z,98254.19
2018-05-11T03:23:53.293Z,98256.63
2018-05-11T03:24:58.288Z,98256.47
2018-05-11T03:26:03.142Z,98255.66
2018-05-11T03:27:08.150Z,98255.30
2018-05-11T03:28:12.963Z,98254.75
2018-05-11T03:29:17.517Z,98257.47
2018-05-11T03:30:22.072Z,98262.45
2018-05-11T03:31:26.623Z,98260.38
2018-05-11T03:32:31.584Z,98262.98
2018-05-11T03:33:36.493Z,98262.38
2018-05-11T03:34:41.043Z,98262.96
2018-05-11T03:35:45.618Z,98257.27
2018-05-11T03:36:50.149Z,98261.53
2018-05-11T03:37:54.699Z,98260.81
2018-05-11T03:39:00.210Z,98267.91
2018-05-11T03:40:06.071Z,98264.91
2018-05-11T03:41:11.859Z,98255.87
2018-05-11T03:42:16.498Z,98260.77
2018-05-11T03:43:21.423Z,98260.22
2018-05-11T03:44:26.649Z,98258.13
2018-05-11T03:45:31.268Z,98258.89
2018-05-11T03:46:36.186Z,98263.87
2018-05-11T03:47:40.703Z,98260.38
2018-05-11T03:48:45.263Z,98268.48
2018-05-11T03:49:49.802Z,98276.52
2018-05-11T03:50:54.446Z,98276.11
2018-05-11T03:51:58.999Z,98275.75
2018-05-11T03:53:04.415Z,98274.85
2018-05-11T03:54:08.953Z,98275.67
2018-05-11T03:55:13.681Z,98278.02
2018-05-11T03:56:18.238Z,98275.36
2018-05-11T03:57:24.230Z,98281.37
2018-05-11T03:58:29.698Z,98272.80
2018-05-11T03:59:34.590Z,98276.30
2018-05-11T04:00:39.125Z,98278.80
2018-05-11T04:01:48.728Z,98271.47
2018-05-11T04:02:58.465Z,98274.52
2018-05-11T04:04:08.319Z,98272.31
2018-05-11T04:05:18.326Z,98274.10
2018-05-11T04:06:27.095Z,98273.29
2018-05-11T04:07:37.111Z,98275.63
2018-05-11T04:08:43.528Z,98280.48
2018-05-11T04:09:48.170Z,98277.80
2018-05-11T04:10:53.636Z,98270.50
2018-05-11T04:11:58.465Z,98272.63
2018-05-11T04:13:03.891Z,98273.53
2018-05-11T04:14:09.063Z,98272.28
2018-05-11T04:15:14.072Z,98267.94
2018-05-11T04:16:20.031Z,98269.19
2018-05-11T04:17:24.606Z,98268.97
2018-05-11T04:18:29.568Z,98270.45
2018-05-11T04:19:34.089Z,98277.64
2018-05-11T04:20:38.632Z,98276.55
2018-05-11T04:21:43.177Z,98278.77
2018-05-11T04:22:47.728Z,98276.58
2018-05-11T04:23:53.509Z,98276.77
2018-05-11T04:24:58.363Z,98279.08
2018-05-11T04:26:02.961Z,98271.09
2018-05-11T04:27:08.596Z,98269.72
2018-05-11T04:28:14.738Z,98270.09
2018-05-11T04:29:19.311Z,98273.84
2018-05-11T04:30:23.942Z,98271.42
2018-05-11T04:31:28.843Z,98280.50
2018-05-11T04:32:34.805Z,98279.58
2018-05-11T04:33:39.948Z,98281.60
2018-05-11T04:34:44.731Z,98282.33
2018-05-11T04:35:49.665Z,98282.31
2018-05-11T04:36:54.180Z,98285.31
2018-05-11T04:37:59.159Z,98288.50
2018-05-11T04:39:03.937Z,98287.53
2018-05-11T04:40:09.021Z,98293.38
2018-05-11T04:41:13.678Z,98293.44
2018-05-11T04:42:18.310Z,98290.75
2018-05-11T04:43:22.844Z,98290.41
2018-05-11T04:44:29.262Z,98292.66
2018-05-11T04:45:34.704Z,98292.69
2018-05-11T04:46:39.421Z,98290.62
2018-05-11T04:47:43.977Z,98298.17
2018-05-11T04:48:48.502Z,98296.05
2018-05-11T04:49:53.018Z,98296.73
2018-05-11T04:50:58.720Z,98295.66
2018-05-11T04:52:04.106Z,98300.98
2018-05-11T04:53:08.761Z,98299.30
2018-05-11T04:54:16.196Z,98305.56
2018-05-11T04:55:20.738Z,98305.25
2018-05-11T04:56:25.384Z,98306.22
2018-05-11T04:57:30.447Z,98307.53
2018-05-11T04:58:34.978Z,98306.88
2018-05-11T04:59:39.560Z,98306.34
2018-05-11T05:00:44.480Z,98303.94
2018-05-11T05:01:49.036Z,98306.05
2018-05-11T05:02:53.554Z,98309.25
2018-05-11T05:03:58.775Z,98311.35
2018-05-11T05:05:04.057Z,98308.34
2018-05-11T05:06:09.003Z,98315.76
2018-05-11T05:07:13.576Z,98303.61
2018-05-11T05:08:18.059Z,98305.74
2018-05-11T05:09:23.805Z,98307.68
2018-05-11T05:10:28.930Z,98310.72
2018-05-11T05:11:33.467Z,98309.53
2018-05-11T05:12:38.049Z,98308.59
2018-05-11T05:13:42.611Z,98310.59
2018-05-11T05:14:48.349Z,98311.25
2018-05-11T05:15:52.974Z,98312.44
2018-05-11T05:16:58.346Z,98307.67
2018-05-11T05:18:03.203Z,98306.58
2018-05-11T05:19:09.214Z,98308.55
2018-05-11T05:20:15.462Z,98314.44
2018-05-11T05:21:21.354Z,98312.01
2018-05-11T05:22:26.720Z,98317.85
2018-05-11T05:23:31.616Z,98323.36
2018-05-11T05:24:36.210Z,98323.02
2018-05-11T05:25:40.757Z,98324.23
2018-05-11T05:26:45.358Z,98318.52
2018-05-11T05:27:50.424Z,98322.39
2018-05-11T05:28:54.995Z,98322.41
2018-05-11T05:29:59.896Z,98323.57
2018-05-11T05:31:04.460Z,98319.56
2018-05-11T05:32:09.043Z,98322.44
2018-05-11T05:33:14.108Z,98322.69
2018-05-11T05:34:19.735Z,98326.73
2018-05-11T05:35:24.337Z,98331.09
2018-05-11T05:36:29.275Z,98328.85
2018-05-11T05:37:33.821Z,98323.31
2018-05-11T05:38:38.372Z,98331.03
2018-05-11T05:39:42.946Z,98329.41
2018-05-11T05:40:47.531Z,98332.45
2018-05-11T05:41:52.080Z,98331.07
2018-05-11T05:42:56.817Z,98328.59
2018-05-11T05:44:01.370Z,98328.34
2018-05-11T05:45:05.939Z,98336.32
2018-05-11T05:46:10.512Z,98333.41
2018-05-11T05:47:15.111Z,98332.73
2018-05-11T05:48:20.070Z,98337.48
2018-05-11T05:49:24.666Z,98337.48
2018-05-11T05:50:29.446Z,98336.80
2018-05-11T05:51:34.071Z,98333.98
2018-05-11T05:52:38.591Z,98335.30
2018-05-11T05:53:43.170Z,98332.77
2018-05-11T05:54:48.135Z,98335.17
2018-05-11T05:55:52.610Z,98333.80
2018-05-11T05:56:57.117Z,98330.32
2018-05-11T05:58:01.665Z,98337.77
2018-05-11T05:59:06.182Z,98340.44
2018-05-11T06:00:10.699Z,98336.89
2018-05-11T06:01:15.616Z,98339.27
2018-05-11T06:02:20.200Z,98339.22
2018-05-11T06:03:24.752Z,98334.90
2018-05-11T06:04:29.316Z,98329.38
2018-05-11T06:05:33.844Z,98332.48
2018-05-11T06:06:38.418Z,98325.99
2018-05-11T06:07:43.316Z,98326.52
2018-05-11T06:08:47.897Z,98332.55
2018-05-11T06:09:52.468Z,98327.54
2018-05-11T06:10:57.229Z,98330.56
2018-05-11T06:12:01.822Z,98328.48
2018-05-11T06:13:06.436Z,98336.39
2018-05-11T06:14:11.319Z,98330.62
2018-05-11T06:15:15.962Z,98332.56
2018-05-11T06:16:21.597Z,98334.69
2018-05-11T06:17:26.509Z,98334.67
2018-05-11T06:18:32.017Z,98332.93
2018-05-11T06:19:37.142Z,98343.22
2018-05-11T06:20:43.678Z,98339.00
2018-05-11T06:21:48.870Z,98339.75
2018-05-11T06:22:54.007Z,98340.71
2018-05-11T06:23:59.446Z,98342.20
2018-05-11T06:25:04.331Z,98342.36
2018-05-11T06:26:09.311Z,98337.42
2018-05-11T06:27:14.095Z,98339.68
2018-05-11T06:28:18.901Z,98337.83
2018-05-11T06:29:23.544Z,98336.52
2018-05-11T06:30:28.342Z,98333.88
2018-05-11T06:31:32.900Z,98335.28
2018-05-11T06:32:37.765Z,98338.94
2018-05-11T06:33:42.389Z,98336.17
2018-05-11T06:34:47.517Z,98329.72
2018-05-11T06:35:53.961Z,98332.37
2018-05-11T06:36:59.047Z,98333.05
2018-05-11T06:38:03.936Z,98325.67
2018-05-11T06:39:09.569Z,98329.37
2018-05-11T06:40:14.978Z,98331.12
2018-05-11T06:41:20.437Z,98329.36
2018-05-11T06:42:25.787Z,98323.47
2018-05-11T06:43:32.692Z,98322.00
2018-05-11T06:44:38.305Z,98321.88
2018-05-11T06:45:43.641Z,98321.63
2018-05-11T06:46:49.751Z,98321.27
2018-05-11T06:47:55.428Z,98315.05
2018-05-11T06:49:01.399Z,98317.15
2018-05-11T06:50:06.127Z,98317.29
2018-05-11T06:51:12.054Z,98320.58
2018-05-11T06:52:17.282Z,98313.71
2018-05-11T06:53:22.443Z,98316.37
2018-05-11T06:54:27.190Z,98315.66
2018-05-11T06:55:31.762Z,98317.37
2018-05-11T06:56:36.301Z,98313.26
2018-05-11T06:57:41.047Z,98312.00
2018-05-11T06:58:46.118Z,98324.51
2018-05-11T06:59:50.693Z,98322.80
2018-05-11T07:00:55.157Z,98331.80
2018-05-11T07:01:59.775Z,98325.23
2018-05-11T07:03:05.601Z,98325.67
2018-05-11T07:04:10.622Z,98327.84
2018-05-11T07:05:16.035Z,98328.15
2018-05-11T07:06:22.092Z,98328.38
2018-05-11T07:07:27.372Z,98328.35
2018-05-11T07:08:33.078Z,98325.88
2018-05-11T07:09:38.083Z,98329.09
2018-05-11T07:10:43.270Z,98328.67
2018-05-11T07:11:48.875Z,98329.29
2018-05-11T07:12:53.909Z,98324.81
2018-05-11T07:14:00.196Z,98321.22
2018-05-11T07:15:06.145Z,98320.47
2018-05-11T07:16:11.663Z,98319.45
2018-05-11T07:17:16.997Z,98320.68
2018-05-11T07:18:22.362Z,98319.47
2018-05-11T07:19:28.799Z,98312.55
2018-05-11T07:20:33.410Z,98315.70
2018-05-11T07:21:38.362Z,98314.05
2018-05-11T07:22:43.870Z,98319.08
2018-05-11T07:23:48.886Z,98315.58
2018-05-11T07:24:55.675Z,98315.37
2018-05-11T07:26:00.429Z,98310.72
2018-05-11T07:27:05.510Z,98309.07
2018-05-11T07:28:10.875Z,98310.78
2018-05-11T07:29:17.003Z,98309.52
2018-05-11T07:30:22.021Z,98300.92
2018-05-11T07:31:27.802Z,98301.67
2018-05-11T07:32:33.379Z,98304.71
2018-05-11T07:33:39.751Z,98303.78
2018-05-11T07:34:47.771Z,98302.16
2018-05-11T07:35:52.269Z,98296.73
2018-05-11T07:36:57.220Z,98302.12
2018-05-11T07:38:03.609Z,98311.05
2018-05-11T07:39:08.746Z,98302.20
2018-05-11T07:40:14.305Z,98304.83
2018-05-11T07:41:19.885Z,98304.97
2018-05-11T07:42:24.405Z,98301.76
2018-05-11T07:43:29.366Z,98301.27
2018-05-11T07:44:34.125Z,98302.81
2018-05-11T07:45:39.739Z,98302.99
2018-05-11T07:46:45.472Z,98296.95
2018-05-11T07:47:50.356Z,98297.91
2018-05-11T07:48:55.659Z,98296.13
2018-05-11T07:50:02.416Z,98296.67
2018-05-11T07:51:07.429Z,98295.45
2018-05-11T07:52:13.142Z,98296.42
2018-05-11T07:53:18.296Z,98296.48
2018-05-11T07:54:23.167Z,98296.84
2018-05-11T07:55:28.635Z,98297.03
2018-05-11T07:56:33.706Z,98298.36
2018-05-11T07:57:40.496Z,98296.88
2018-05-11T07:58:48.372Z,98294.70
2018-05-11T07:59:53.009Z,98293.03
2018-05-11T08:00:57.913Z,98289.27
2018-05-11T08:02:03.005Z,98285.52
2018-05-11T08:03:08.113Z,98287.98
2018-05-11T08:04:14.127Z,98287.53
2018-05-11T08:05:20.022Z,98284.86
2018-05-11T08:06:26.165Z,98283.02
2018-05-11T08:07:31.529Z,98285.39
2018-05-11T08:08:37.064Z,98282.19
2018-05-11T08:09:42.997Z,98276.05
2018-05-11T08:10:48.693Z,98271.25
2018-05-11T08:11:54.137Z,98278.14
2018-05-11T08:13:00.434Z,98283.75
2018-05-11T08:14:05.802Z,98278.75
2018-05-11T08:15:10.875Z,98285.59
2018-05-11T08:16:16.892Z,98276.37
2018-05-11T08:17:22.260Z,98276.98
2018-05-11T08:18:27.285Z,98273.67
2018-05-11T08:19:32.798Z,98279.20
2018-05-11T08:20:38.333Z,98267.52
2018-05-11T08:21:43.530Z,98273.13
2018-05-11T08:22:49.083Z,98273.05
2018-05-11T08:23:54.459Z,98265.88
2018-05-11T08:24:59.423Z,98270.67
2018-05-11T08:26:04.551Z,98269.69
2018-05-11T08:27:10.118Z,98275.27
2018-05-11T08:28:17.550Z,98271.16
2018-05-11T08:29:23.578Z,98272.39
2018-05-11T08:30:30.103Z,98273.53
2018-05-11T08:31:35.916Z,98271.52
2018-05-11T08:32:41.378Z,98269.63
2018-05-11T08:33:47.113Z,98267.75
2018-05-11T08:34:52.814Z,98266.66
2018-05-11T08:35:59.333Z,98268.48
2018-05-11T08:37:04.071Z,98269.67
2018-05-11T08:38:09.208Z,98264.88
2018-05-11T08:39:14.585Z,98268.66
2018-05-11T08:40:20.074Z,98269.59
2018-05-11T08:41:26.926Z,98262.25
2018-05-11T08:42:32.545Z,98260.66
2018-05-11T08:43:38.199Z,98261.86
2018-05-11T08:44:43.389Z,98257.17
2018-05-11T08:45:49.169Z,98258.45
2018-05-11T08:46:55.262Z,98256.85
2018-05-11T08:48:00.325Z,98261.81
2018-05-11T08:49:06.173Z,98258.08
2018-05-11T08:50:11.363Z,98251.73
2018-05-11T08:51:17.452Z,98256.22
2018-05-11T08:52:22.751Z,98250.05
2018-05-11T08:53:29.234Z,98250.84
2018-05-11T08:54:34.466Z,98249.05
2018-05-11T08:55:39.949Z,98242.89
2018-05-11T08:56:47.032Z,98241.95
2018-05-11T08:57:52.855Z,98246.44
2018-05-11T08:58:57.976Z,98243.72
2018-05-11T09:00:03.737Z,98244.48
2018-05-11T09:01:08.755Z,98234.80
2018-05-11T09:02:14.457Z,98239.84
2018-05-11T09:03:19.247Z,98236.12
2018-05-11T09:04:24.425Z,98236.12
2018-05-11T09:05:29.804Z,98241.38
2018-05-11T09:06:38.675Z,98234.45
2018-05-11T09:07:43.395Z,98237.36
2018-05-11T09:08:47.974Z,98233.72
2018-05-11T09:09:53.117Z,98239.37
2018-05-11T09:10:58.094Z,98236.77
2018-05-11T09:12:02.693Z,98230.61
2018-05-11T09:13:08.256Z,98229.40
2018-05-11T09:14:13.906Z,98232.84
2018-05-11T09:15:18.459Z,98229.84
2018-05-11T09:16:23.108Z,98230.30
2018-05-11T09:17:27.650Z,98225.22
2018-05-11T09:18:32.458Z,98226.91
2018-05-11T09:19:37.527Z,98228.59
2018-05-11T09:20:42.038Z,98221.37
2018-05-11T09:21:46.563Z,98226.38
2018-05-11T09:22:52.463Z,98215.88
2018-05-11T09:23:56.986Z,98221.86
2018-05-11T09:25:04.438Z,98218.58
2018-05-11T09:26:09.284Z,98214.59
2018-05-11T09:27:14.278Z,98216.17
2018-05-11T09:28:20.116Z,98208.13
2018-05-11T09:29:25.617Z,98206.84
2018-05-11T09:30:31.322Z,98208.62
2018-05-11T09:31:36.562Z,98206.72
2018-05-11T09:32:41.369Z,98205.62
2018-05-11T09:33:46.508Z,98208.11
2018-05-11T09:34:51.183Z,98208.69
2018-05-11T09:35:55.767Z,98202.50
2018-05-11T09:37:03.265Z,98202.98
2018-05-11T09:38:08.625Z,98200.70
2018-05-11T09:39:13.497Z,98201.02
2018-05-11T09:40:18.479Z,98199.67
2018-05-11T09:41:23.950Z,98204.98
2018-05-11T09:42:29.178Z,98206.18
2018-05-11T09:43:34.230Z,98201.63
2018-05-11T09:44:39.673Z,98199.80
2018-05-11T09:45:45.414Z,98203.32
2018-05-11T09:46:50.014Z,98198.62
2018-05-11T09:47:54.769Z,98199.56
2018-05-11T09:48:59.857Z,98198.36
2018-05-11T09:50:05.125Z,98198.70
2018-05-11T09:51:10.215Z,98197.34
2018-05-11T09:52:15.520Z,98204.45
2018-05-11T09:53:20.215Z,98209.27
2018-05-11T09:54:25.522Z,98206.02
2018-05-11T09:55:30.615Z,98197.70
2018-05-11T09:56:35.779Z,98195.34
2018-05-11T09:57:40.874Z,98199.36
2018-05-11T09:58:45.538Z,98200.22
2018-05-11T09:59:50.491Z,98193.89
2018-05-11T10:00:55.372Z,98192.26
2018-05-11T10:01:59.962Z,98193.45
2018-05-11T10:03:04.655Z,98195.34
2018-05-11T10:04:10.671Z,98200.80
2018-05-11T10:05:16.077Z,98197.36
2018-05-11T10:06:20.743Z,98192.13
2018-05-11T10:07:26.723Z,98194.70
2018-05-11T10:08:31.445Z,98187.97
2018-05-11T10:09:36.128Z,98186.06
2018-05-11T10:10:42.255Z,98191.30
2018-05-11T10:11:46.928Z,98183.11
2018-05-11T10:12:51.496Z,98188.52
2018-05-11T10:13:56.588Z,98187.19
2018-05-11T10:15:01.405Z,98183.55
2018-05-11T10:16:06.098Z,98182.66
2018-05-11T10:17:12.340Z,98187.34
2018-05-11T10:18:16.905Z,98189.44
2018-05-11T10:19:22.982Z,98179.11
2018-05-11T10:20:27.651Z,98178.45
2018-05-11T10:21:32.536Z,98183.01
2018-05-11T10:22:37.373Z,98174.67
2018-05-11T10:23:42.567Z,98179.23
2018-05-11T10:24:47.403Z,98182.74
2018-05-11T10:25:52.115Z,98172.16
2018-05-11T10:26:56.616Z,98175.22
2018-05-11T10:28:01.450Z,98171.73
2018-05-11T10:29:06.306Z,98180.18
2018-05-11T10:30:11.414Z,98175.78
2018-05-11T10:31:16.101Z,98174.82
2018-05-11T10:32:20.757Z,98180.63
2018-05-11T10:33:25.800Z,98177.21
2018-05-11T10:34:31.964Z,98176.94
2018-05-11T10:35:36.540Z,98179.95
2018-05-11T10:36:41.430Z,98172.42
2018-05-11T10:37:46.001Z,98177.58
2018-05-11T10:38:50.785Z,98174.52
2018-05-11T10:39:55.641Z,98174.14
2018-05-11T10:41:00.741Z,98174.02
2018-05-11T10:42:05.357Z,98167.70
2018-05-11T10:43:11.150Z,98166.73
2018-05-11T10:44:16.604Z,98164.23
2018-05-11T10:45:22.025Z,98171.77
2018-05-11T10:46:27.799Z,98168.82
2018-05-11T10:47:32.631Z,98166.52
2018-05-11T10:48:38.831Z,98160.61
2018-05-11T10:49:45.297Z,98165.41
2018-05-11T10:50:51.166Z,98161.30
2018-05-11T10:51:57.097Z,98161.89
2018-05-11T10:53:01.775Z,98167.67
2018-05-11T10:54:07.050Z,98159.52
2018-05-11T10:55:13.290Z,98153.59
2018-05-11T10:57:37.475Z,98157.10
2018-05-11T10:58:42.072Z,98159.66
2018-05-11T10:59:46.669Z,98158.38
2018-05-11T11:00:51.240Z,98155.33
2018-05-11T11:01:56.147Z,98160.11
2018-05-11T11:03:01.901Z,98157.30
2018-05-11T11:04:07.732Z,98161.56
2018-05-11T11:05:12.577Z,98161.84
2018-05-11T11:06:18.372Z,98160.68
2018-05-11T11:07:23.584Z,98154.14
2018-05-11T11:08:29.373Z,98160.97
2018-05-11T11:09:34.922Z,98155.31
2018-05-11T11:10:40.282Z,98152.56
2018-05-11T11:11:45.436Z,98157.48
2018-05-11T11:12:50.078Z,98157.02
2018-05-11T11:13:54.654Z,98149.44
2018-05-11T11:14:59.286Z,98147.78
2018-05-11T11:16:03.969Z,98159.83
2018-05-11T11:17:08.660Z,98148.56
2018-05-11T11:18:14.127Z,98146.08
2018-05-11T11:19:18.810Z,98142.92
2018-05-11T11:20:23.443Z,98140.61
2018-05-11T11:21:28.323Z,98143.16
2018-05-11T11:22:32.985Z,98144.43
2018-05-11T11:23:37.649Z,98148.91
2018-05-11T11:24:43.171Z,98145.89
2018-05-11T11:25:50.749Z,98138.67
2018-05-11T11:26:56.534Z,98146.70
2018-05-11T11:28:01.077Z,98140.07
2018-05-11T11:29:06.639Z,98135.91
2018-05-11T11:30:11.132Z,98133.27
2018-05-11T11:31:16.990Z,98142.34
2018-05-11T11:32:21.781Z,98140.09
2018-05-11T11:33:26.966Z,98135.60
2018-05-11T11:34:32.133Z,98132.08
2018-05-11T11:35:36.703Z,98130.08
2018-05-11T11:36:41.376Z,98129.25
2018-05-11T11:37:46.542Z,98136.63
2018-05-11T11:38:51.256Z,98130.27
2018-05-11T11:39:57.398Z,98134.20
2018-05-11T11:41:03.488Z,98127.36
2018-05-11T11:42:08.300Z,98132.80
2018-05-11T11:43:14.491Z,98120.45
2018-05-11T11:44:19.689Z,98123.12
2018-05-11T11:45:24.346Z,98118.27
2018-05-11T11:46:29.376Z,98124.43
2018-05-11T11:47:35.318Z,98118.44
2018-05-11T11:48:40.344Z,98117.77
2018-05-11T11:49:44.908Z,98117.38
2018-05-11T11:50:49.515Z,98112.19
2018-05-11T11:51:54.139Z,98114.73
2018-05-11T11:53:00.800Z,98115.73
2018-05-11T11:54:05.421Z,98113.98
2018-05-11T11:55:10.051Z,98109.80
2018-05-11T11:56:15.284Z,98106.46
2018-05-11T11:57:19.940Z,98106.72
2018-05-11T11:58:24.805Z,98098.23
2018-05-11T11:59:31.342Z,98095.72
2018-05-11T12:00:35.930Z,98102.95
2018-05-11T12:01:41.456Z,98102.73
2018-05-11T12:02:46.689Z,98096.66
2018-05-11T12:03:51.281Z,98100.02
2018-05-11T12:04:57.239Z,98102.80
2018-05-11T12:06:03.403Z,98100.27
2018-05-11T12:07:08.154Z,98102.86
2018-05-11T12:08:13.599Z,98098.00
2018-05-11T12:09:18.208Z,98105.83
2018-05-11T12:10:23.231Z,98102.12
2018-05-11T12:11:29.334Z,98101.55
2018-05-11T12:12:35.986Z,98103.78
2018-05-11T12:13:41.803Z,98102.55
2018-05-11T12:14:47.667Z,98104.22
2018-05-11T12:15:52.316Z,98095.70
2018-05-11T12:16:57.602Z,98101.77
2018-05-11T12:18:02.097Z,98102.05
2018-05-11T12:19:07.015Z,98100.08
2018-05-11T12:20:11.616Z,98097.30
2018-05-11T12:21:16.425Z,98094.84
2018-05-11T12:22:21.645Z,98093.30
2018-05-11T12:23:26.274Z,98105.84
2018-05-11T12:24:30.911Z,98102.60
2018-05-11T12:25:36.832Z,98101.15
2018-05-11T12:26:41.448Z,98097.12
2018-05-11T12:27:46.596Z,98096.52
2018-05-11T12:28:51.189Z,98092.81
2018-05-11T12:29:55.816Z,98096.33
2018-05-11T12:31:01.234Z,98090.45
2018-05-11T12:32:05.874Z,98089.07
2018-05-11T12:33:11.196Z,98085.20
2018-05-11T12:34:16.887Z,98085.92
2018-05-11T12:35:21.500Z,98091.77
2018-05-11T12:36:26.068Z,98091.12
2018-05-11T12:37:31.610Z,98091.19
2018-05-11T12:38:36.231Z,98088.69
2018-05-11T12:39:41.340Z,98091.30
2018-05-11T12:40:45.878Z,98092.97
2018-05-11T12:41:50.471Z,98085.88
2018-05-11T12:42:56.334Z,98083.77
2018-05-11T12:44:01.161Z,98087.00
2018-05-11T12:45:05.687Z,98077.06
2018-05-11T12:46:11.008Z,98082.26
2018-05-11T12:47:15.521Z,98076.95